createdAt,value
2022-08-17T00:00:43.865Z,20.40
2022-08-17T00:03:19.547Z,20.40
2022-08-17T00:05:52.411Z,20.50
2022-08-17T00:08:23.845Z,20.60
2022-08-17T00:10:54.164Z,20.60
2022-08-17T00:13:25.926Z,20.70
2022-08-17T00:15:58.683Z,20.70
2022-08-17T00:19:01.133Z,20.90
2022-08-17T00:21:23.651Z,20.90
2022-08-17T00:23:52.758Z,21.00
2022-08-17T00:26:43.512Z,20.80
2022-08-17T00:29:10.782Z,20.70
2022-08-17T00:31:51.143Z,20.70
2022-08-17T00:34:20.119Z,20.70
2022-08-17T00:36:48.218Z,20.60
2022-08-17T00:39:19.202Z,20.50
2022-08-17T00:41:50.218Z,20.30
2022-08-17T00:44:18.638Z,20.10
2022-08-17T00:46:50.818Z,20.00
2022-08-17T00:49:23.516Z,20.00
2022-08-17T00:51:57.562Z,20.00
2022-08-17T00:54:30.098Z,20.10
2022-08-17T00:57:02.038Z,20.10
2022-08-17T00:59:36.423Z,20.10
2022-08-17T01:02:07.200Z,20.10
2022-08-17T01:04:35.744Z,20.20
2022-08-17T01:07:05.485Z,20.20
2022-08-17T01:09:34.834Z,20.30
2022-08-17T01:12:03.229Z,20.30
2022-08-17T01:14:32.138Z,20.30
2022-08-17T01:17:00.954Z,20.20
2022-08-17T01:19:34.355Z,20.20
2022-08-17T01:22:10.073Z,20.10
2022-08-17T01:24:44.895Z,20.00
2022-08-17T01:27:14.519Z,20.00
2022-08-17T01:29:46.809Z,19.90
2022-08-17T01:32:16.028Z,19.90
2022-08-17T01:34:50.189Z,20.00
2022-08-17T01:37:21.032Z,20.00
2022-08-17T01:39:57.179Z,20.10
2022-08-17T01:42:31.836Z,20.10
2022-08-17T01:45:03.819Z,20.00
2022-08-17T01:47:32.677Z,20.10
2022-08-17T01:50:11.849Z,19.90
2022-08-17T01:52:41.691Z,20.10
2022-08-17T01:55:12.189Z,20.10
2022-08-17T01:57:40.488Z,20.20
2022-08-17T02:00:13.106Z,20.20
2022-08-17T02:02:42.847Z,20.20
2022-08-17T02:05:11.170Z,20.20
2022-08-17T02:07:59.383Z,20.10
2022-08-17T02:10:33.862Z,20.10
2022-08-17T02:13:02.948Z,20.10
2022-08-17T02:15:31.927Z,20.10
2022-08-17T02:18:00.703Z,20.10
2022-08-17T02:20:41.220Z,20.00
2022-08-17T02:23:11.858Z,20.00
2022-08-17T02:25:44.893Z,20.00
2022-08-17T02:28:13.660Z,19.80
2022-08-17T02:31:01.816Z,19.70
2022-08-17T02:33:41.746Z,19.70
2022-08-17T02:36:12.863Z,19.90
2022-08-17T02:38:42.289Z,19.90
2022-08-17T02:41:13.071Z,19.90
2022-08-17T02:43:41.919Z,20.00
2022-08-17T02:46:12.914Z,19.80
2022-08-17T02:48:41.229Z,19.90
2022-08-17T02:51:11.938Z,20.00
2022-08-17T02:53:40.660Z,19.90
2022-08-17T02:56:08.869Z,19.90
2022-08-17T02:58:38.733Z,19.90
2022-08-17T03:01:09.254Z,19.90
2022-08-17T03:03:38.765Z,19.90
2022-08-17T03:06:08.570Z,19.90
2022-08-17T03:08:37.421Z,19.80
2022-08-17T03:11:06.469Z,19.70
2022-08-17T03:13:34.817Z,19.70
2022-08-17T03:16:04.960Z,19.60
2022-08-17T03:18:33.158Z,19.60
2022-08-17T03:21:04.325Z,19.60
2022-08-17T03:23:33.909Z,19.60
2022-08-17T03:26:02.638Z,19.60
2022-08-17T03:28:30.901Z,19.50
2022-08-17T03:30:59.176Z,19.50
2022-08-17T03:33:29.385Z,19.50
2022-08-17T03:35:58.243Z,19.60
2022-08-17T03:38:27.157Z,19.60
2022-08-17T03:40:59.373Z,19.60
2022-08-17T03:43:30.109Z,19.60
2022-08-17T03:46:34.214Z,19.60
2022-08-17T03:49:24.697Z,19.60
2022-08-17T03:52:10.590Z,19.60
2022-08-17T03:54:56.598Z,19.50
2022-08-17T03:57:24.849Z,19.50
2022-08-17T03:59:53.732Z,19.60
2022-08-17T04:02:24.486Z,19.60
2022-08-17T04:04:54.377Z,19.60
2022-08-17T04:07:25.795Z,19.50
2022-08-17T04:09:54.025Z,19.50
2022-08-17T04:12:24.774Z,19.50
2022-08-17T04:14:54.950Z,19.40
2022-08-17T04:17:26.423Z,19.40
2022-08-17T04:19:57.248Z,19.40
2022-08-17T04:22:30.152Z,19.40
2022-08-17T04:25:03.876Z,19.40
2022-08-17T04:27:32.379Z,19.50
2022-08-17T04:30:00.992Z,19.50
2022-08-17T04:33:00.787Z,19.50
2022-08-17T04:35:22.209Z,19.40
2022-08-17T04:37:53.253Z,19.40
2022-08-17T04:40:41.297Z,19.50
2022-08-17T04:43:12.249Z,19.60
2022-08-17T04:45:55.579Z,19.70
2022-08-17T04:48:36.584Z,19.80
2022-08-17T04:51:10.176Z,19.90
2022-08-17T04:53:40.321Z,19.80
2022-08-17T04:56:16.240Z,19.80
2022-08-17T04:58:46.621Z,19.80
2022-08-17T05:01:15.254Z,19.90
2022-08-17T05:03:45.169Z,20.00
2022-08-17T05:06:14.735Z,20.10
2022-08-17T05:08:42.929Z,20.10
2022-08-17T05:11:11.644Z,20.20
2022-08-17T05:13:41.008Z,20.10
2022-08-17T05:16:10.001Z,20.20
2022-08-17T05:18:39.203Z,20.20
2022-08-17T05:21:07.912Z,20.30
2022-08-17T05:23:42.553Z,20.40
2022-08-17T05:26:25.573Z,20.50
2022-08-17T05:29:02.695Z,20.60
2022-08-17T05:31:33.881Z,20.60
2022-08-17T05:34:02.141Z,20.70
2022-08-17T05:36:43.723Z,20.80
2022-08-17T05:39:18.231Z,20.90
2022-08-17T05:41:48.749Z,21.00
2022-08-17T05:44:19.442Z,20.90
2022-08-17T05:46:51.412Z,21.10
2022-08-17T05:49:28.540Z,21.20
2022-08-17T05:52:11.047Z,21.20
2022-08-17T05:54:51.717Z,21.20
2022-08-17T05:57:39.495Z,21.20
2022-08-17T06:00:20.158Z,21.30
2022-08-17T06:03:19.986Z,21.20
2022-08-17T06:06:02.517Z,21.30
2022-08-17T06:08:40.304Z,21.40
2022-08-17T06:11:20.546Z,21.50
2022-08-17T06:14:10.887Z,21.80
2022-08-17T06:16:45.312Z,22.10
2022-08-17T06:19:20.954Z,22.50
2022-08-17T06:21:57.313Z,22.70
2022-08-17T06:24:38.663Z,22.90
2022-08-17T06:27:28.773Z,23.00
2022-08-17T06:30:00.959Z,23.20
2022-08-17T06:32:34.205Z,23.20
2022-08-17T06:35:04.794Z,23.30
2022-08-17T06:38:05.059Z,23.40
2022-08-17T06:40:55.332Z,23.40
2022-08-17T06:43:47.525Z,23.40
2022-08-17T06:46:27.808Z,23.20
2022-08-17T06:49:08.109Z,23.10
2022-08-17T06:51:41.969Z,23.00
2022-08-17T06:54:17.289Z,22.80
2022-08-17T06:56:55.404Z,22.60
2022-08-17T06:59:55.805Z,22.40
2022-08-17T07:02:51.462Z,22.40
2022-08-17T07:05:34.477Z,22.50
2022-08-17T07:08:14.848Z,22.50
2022-08-17T07:10:53.123Z,22.40
2022-08-17T07:13:32.323Z,22.40
2022-08-17T07:16:09.052Z,22.40
2022-08-17T07:18:40.597Z,22.40
2022-08-17T07:21:26.881Z,22.50
2022-08-17T07:24:07.499Z,22.50
2022-08-17T07:26:36.070Z,22.50
2022-08-17T07:29:04.566Z,22.50
2022-08-17T07:31:34.968Z,22.60
2022-08-17T07:34:08.887Z,22.70
2022-08-17T07:36:37.766Z,22.70
2022-08-17T07:39:06.542Z,22.70
2022-08-17T07:41:57.441Z,22.80
2022-08-17T07:44:28.331Z,22.80
2022-08-17T07:47:16.379Z,22.80
2022-08-17T07:49:46.999Z,22.80
2022-08-17T07:52:51.439Z,22.90
2022-08-17T07:55:30.631Z,22.80
2022-08-17T07:58:00.357Z,22.90
2022-08-17T08:00:32.302Z,22.80
2022-08-17T08:03:13.957Z,22.50
2022-08-17T08:05:54.807Z,22.60
2022-08-17T08:08:28.553Z,22.60
2022-08-17T08:11:04.158Z,22.60
2022-08-17T08:13:33.660Z,22.60
2022-08-17T08:16:23.929Z,22.70
2022-08-17T08:18:57.919Z,22.80
2022-08-17T08:21:47.766Z,22.80
2022-08-17T08:24:35.678Z,23.00
2022-08-17T08:27:12.550Z,23.00
2022-08-17T08:29:52.857Z,23.10
2022-08-17T08:32:33.466Z,22.90
2022-08-17T08:35:08.567Z,22.90
2022-08-17T08:37:47.301Z,23.00
2022-08-17T08:40:34.034Z,22.80
2022-08-17T08:43:12.597Z,22.90
2022-08-17T08:45:51.378Z,22.90
2022-08-17T08:48:52.933Z,23.00
2022-08-17T08:51:36.595Z,22.90
2022-08-17T08:54:26.551Z,22.70
2022-08-17T08:57:24.239Z,22.70
2022-08-17T09:00:06.613Z,22.80
2022-08-17T09:03:04.057Z,23.00
2022-08-17T09:05:48.447Z,23.00
2022-08-17T09:08:28.478Z,22.80
2022-08-17T09:11:02.919Z,22.70
2022-08-17T09:13:41.168Z,22.70
2022-08-17T09:16:15.786Z,22.80
2022-08-17T09:19:00.068Z,22.80
2022-08-17T09:21:47.961Z,22.90
2022-08-17T09:24:27.287Z,22.90
2022-08-17T09:27:02.502Z,23.00
2022-08-17T09:29:35.225Z,23.10
2022-08-17T09:32:08.272Z,23.10
2022-08-17T09:34:43.664Z,23.30
2022-08-17T09:37:23.605Z,23.40
2022-08-17T09:40:07.510Z,23.50
2022-08-17T09:42:43.935Z,23.90
2022-08-17T09:45:28.839Z,24.10
2022-08-17T09:48:03.524Z,24.20
2022-08-17T09:51:03.441Z,24.20
2022-08-17T09:53:32.072Z,24.20
2022-08-17T09:56:17.225Z,24.30
2022-08-17T09:59:03.957Z,24.40
2022-08-17T10:01:39.787Z,24.20
2022-08-17T10:04:27.437Z,24.30
2022-08-17T10:07:05.215Z,24.30
2022-08-17T10:09:47.574Z,24.10
2022-08-17T10:12:28.269Z,24.30
2022-08-17T10:15:14.999Z,24.50
2022-08-17T10:17:59.735Z,24.40
2022-08-17T10:20:31.544Z,24.20
2022-08-17T10:23:22.517Z,24.20
2022-08-17T10:26:16.828Z,24.00
2022-08-17T10:28:52.544Z,24.10
2022-08-17T10:31:35.720Z,24.10
2022-08-17T10:34:36.140Z,24.40
2022-08-17T10:37:25.117Z,24.40
2022-08-17T10:40:03.269Z,24.40
2022-08-17T10:42:48.993Z,24.30
2022-08-17T10:45:23.530Z,24.40
2022-08-17T10:48:04.679Z,24.30
2022-08-17T10:51:00.920Z,24.30
2022-08-17T10:53:52.351Z,24.30
2022-08-17T10:56:24.620Z,24.40
2022-08-17T10:58:55.008Z,24.40
2022-08-17T11:02:06.646Z,24.50
2022-08-17T11:04:52.142Z,24.60
2022-08-17T11:07:35.252Z,24.70
2022-08-17T11:10:19.748Z,24.90
2022-08-17T11:12:55.441Z,25.10
2022-08-17T11:15:40.896Z,25.10
2022-08-17T11:18:27.681Z,25.10
2022-08-17T11:21:28.219Z,25.20
2022-08-17T11:24:11.635Z,25.70
2022-08-17T11:26:46.652Z,25.80
2022-08-17T11:29:26.712Z,26.00
2022-08-17T11:32:03.400Z,25.80
2022-08-17T11:34:40.019Z,26.00
2022-08-17T11:37:42.828Z,26.20
2022-08-17T11:40:49.051Z,26.40
2022-08-17T11:44:02.065Z,26.60
2022-08-17T11:47:08.761Z,26.80
2022-08-17T11:50:15.681Z,26.80
2022-08-17T11:52:49.556Z,26.80
2022-08-17T11:55:51.236Z,26.90
2022-08-17T11:58:41.544Z,27.10
2022-08-17T12:01:13.486Z,27.20
2022-08-17T12:03:55.703Z,27.00
2022-08-17T12:06:51.865Z,26.60
2022-08-17T12:09:25.249Z,26.40
2022-08-17T12:12:12.610Z,26.50
2022-08-17T12:15:09.454Z,26.30
2022-08-17T12:17:42.642Z,26.40
2022-08-17T12:20:22.161Z,26.60
2022-08-17T12:23:01.184Z,27.00
2022-08-17T12:25:36.434Z,27.00
2022-08-17T12:28:08.105Z,26.50
2022-08-17T12:30:37.745Z,26.70
2022-08-17T12:33:24.979Z,26.80
2022-08-17T12:36:02.911Z,26.70
2022-08-17T12:38:34.694Z,26.50
2022-08-17T12:41:25.881Z,26.60
2022-08-17T12:44:02.260Z,26.60
2022-08-17T12:46:35.003Z,26.60
2022-08-17T12:49:30.639Z,26.60
2022-08-17T12:52:06.756Z,26.80
2022-08-17T12:54:43.231Z,26.80
2022-08-17T12:57:16.648Z,26.80
2022-08-17T12:59:48.628Z,26.90
2022-08-17T13:02:43.223Z,26.90
2022-08-17T13:05:21.649Z,26.80
2022-08-17T13:07:50.812Z,27.10
2022-08-17T13:10:28.626Z,27.00
2022-08-17T13:13:04.769Z,27.40
2022-08-17T13:15:44.946Z,27.50
2022-08-17T13:18:39.843Z,27.60
2022-08-17T13:21:18.863Z,27.50
2022-08-17T13:23:57.410Z,27.20
2022-08-17T13:26:32.006Z,27.10
2022-08-17T13:29:01.352Z,27.40
2022-08-17T13:31:49.229Z,27.80
2022-08-17T13:35:05.256Z,27.90
2022-08-17T13:37:36.528Z,27.90
2022-08-17T13:40:33.326Z,28.10
2022-08-17T13:43:07.169Z,28.30
2022-08-17T13:45:55.043Z,28.50
2022-08-17T13:48:27.624Z,28.50
2022-08-17T13:51:23.625Z,28.60
2022-08-17T13:54:00.712Z,28.50
2022-08-17T13:56:39.096Z,28.50
2022-08-17T13:59:12.507Z,28.30
2022-08-17T14:01:43.430Z,28.10
2022-08-17T14:04:16.681Z,28.30
2022-08-17T14:06:54.041Z,28.50
2022-08-17T14:09:25.797Z,28.50
2022-08-17T14:11:56.038Z,28.30
2022-08-17T14:14:26.437Z,28.20
2022-08-17T14:16:55.278Z,28.00
2022-08-17T14:19:23.892Z,28.00
2022-08-17T14:21:58.950Z,28.00
2022-08-17T14:24:29.864Z,28.40
2022-08-17T14:26:59.256Z,28.10
2022-08-17T14:29:32.091Z,28.20
2022-08-17T14:32:05.107Z,28.40
2022-08-17T14:34:36.966Z,28.60
2022-08-17T14:37:05.484Z,28.80
2022-08-17T14:39:34.065Z,28.90
2022-08-17T14:42:02.891Z,28.80
2022-08-17T14:44:40.057Z,28.60
2022-08-17T14:47:13.991Z,28.10
2022-08-17T14:49:43.763Z,28.30
2022-08-17T14:52:21.894Z,28.50
2022-08-17T14:54:54.015Z,28.50
2022-08-17T14:57:33.514Z,28.80
2022-08-17T15:00:05.507Z,28.80
2022-08-17T15:02:45.479Z,28.80
2022-08-17T15:05:16.179Z,28.90
2022-08-17T15:07:45.735Z,29.00
2022-08-17T15:10:16.774Z,29.10
2022-08-17T15:12:47.006Z,29.00
2022-08-17T15:15:19.944Z,28.70
2022-08-17T15:20:24.777Z,28.90
2022-08-17T15:22:58.122Z,29.10
2022-08-17T15:25:30.371Z,28.90
2022-08-17T15:28:01.481Z,28.70
2022-08-17T15:30:33.550Z,28.60
2022-08-17T15:33:04.812Z,28.80
2022-08-17T15:35:36.083Z,28.80
2022-08-17T15:38:11.773Z,29.00
2022-08-17T15:40:44.873Z,28.70
2022-08-17T15:43:17.176Z,29.00
2022-08-17T15:45:54.878Z,29.00
2022-08-17T15:48:42.623Z,29.20
2022-08-17T15:51:13.527Z,29.30
2022-08-17T15:53:43.818Z,29.00
2022-08-17T15:56:13.658Z,28.90
2022-08-17T15:58:43.671Z,28.90
2022-08-17T16:01:18.676Z,29.00
2022-08-17T16:04:06.685Z,28.90
2022-08-17T16:06:35.989Z,28.90
2022-08-17T16:09:04.172Z,28.90
2022-08-17T16:11:32.489Z,28.70
2022-08-17T16:14:00.729Z,28.80
2022-08-17T16:16:31.280Z,28.60
2022-08-17T16:18:59.673Z,28.70
2022-08-17T16:21:30.025Z,28.60
2022-08-17T16:24:01.422Z,28.70
2022-08-17T16:26:31.050Z,28.70
2022-08-17T16:29:01.062Z,28.70
2022-08-17T16:31:30.718Z,28.60
2022-08-17T16:34:16.795Z,28.60
2022-08-17T16:36:55.364Z,28.70
2022-08-17T16:39:26.387Z,28.60
2022-08-17T16:41:55.858Z,28.70
2022-08-17T16:44:25.016Z,28.90
2022-08-17T16:46:57.779Z,28.60
2022-08-17T16:49:37.344Z,28.60
2022-08-17T16:52:11.307Z,28.80
2022-08-17T16:54:44.238Z,28.80
2022-08-17T16:57:13.531Z,28.60
2022-08-17T16:59:47.502Z,28.60
2022-08-17T17:02:32.050Z,28.60
2022-08-17T17:05:07.584Z,28.50
2022-08-17T17:07:55.795Z,28.40
2022-08-17T17:10:30.110Z,28.40
2022-08-17T17:13:03.269Z,28.40
2022-08-17T17:15:51.740Z,28.40
2022-08-17T17:18:24.481Z,28.50
2022-08-17T17:20:58.022Z,28.60
2022-08-17T17:23:36.499Z,28.30
2022-08-17T17:26:14.814Z,28.30
2022-08-17T17:28:54.445Z,28.50
2022-08-17T17:31:26.750Z,28.60
2022-08-17T17:34:00.447Z,28.60
2022-08-17T17:36:34.282Z,28.60
2022-08-17T17:39:13.196Z,28.60
2022-08-17T17:41:48.286Z,28.50
2022-08-17T17:44:21.194Z,28.20
2022-08-17T17:46:54.280Z,28.20
2022-08-17T17:49:25.984Z,28.20
2022-08-17T17:52:10.055Z,28.20
2022-08-17T17:54:59.290Z,28.20
2022-08-17T17:57:40.836Z,28.20
2022-08-17T18:00:15.185Z,28.10
2022-08-17T18:02:55.493Z,28.10
2022-08-17T18:05:48.044Z,28.10
2022-08-17T18:08:36.456Z,28.10
2022-08-17T18:11:24.001Z,28.00
2022-08-17T18:14:14.910Z,27.90
2022-08-17T18:16:44.806Z,27.80
2022-08-17T18:19:15.055Z,27.70
2022-08-17T18:21:50.020Z,27.50
2022-08-17T18:24:30.414Z,27.40
2022-08-17T18:27:00.902Z,27.40
2022-08-17T18:29:43.777Z,27.40
2022-08-17T18:32:26.200Z,27.30
2022-08-17T18:34:57.461Z,27.30
2022-08-17T18:37:36.467Z,27.20
2022-08-17T18:40:34.351Z,27.20
2022-08-17T18:43:24.280Z,27.10
2022-08-17T18:45:55.203Z,27.10
2022-08-17T18:48:30.062Z,27.10
2022-08-17T18:51:05.929Z,27.10
2022-08-17T18:53:39.077Z,27.00
2022-08-17T18:56:27.590Z,26.80
2022-08-17T18:59:07.481Z,26.80
2022-08-17T19:01:53.406Z,26.70
2022-08-17T19:04:36.412Z,26.20
2022-08-17T19:07:10.214Z,26.10
2022-08-17T19:09:44.760Z,26.00
2022-08-17T19:12:27.230Z,26.00
2022-08-17T19:15:01.147Z,25.90
2022-08-17T19:17:37.626Z,25.90
2022-08-17T19:20:11.696Z,25.80
2022-08-17T19:22:58.135Z,25.70
2022-08-17T19:25:32.855Z,25.70
2022-08-17T19:28:21.473Z,25.70
2022-08-17T19:30:55.630Z,25.40
2022-08-17T19:33:24.006Z,25.20
2022-08-17T19:36:12.274Z,25.20
2022-08-17T19:38:53.415Z,24.90
2022-08-17T19:41:28.217Z,24.60
2022-08-17T19:44:15.307Z,24.30
2022-08-17T19:46:56.263Z,24.30
2022-08-17T19:49:41.090Z,24.20
2022-08-17T19:52:24.093Z,24.10
2022-08-17T19:54:58.936Z,24.00
2022-08-17T19:57:37.145Z,23.80
2022-08-17T20:00:11.342Z,23.60
2022-08-17T20:02:47.417Z,23.60
2022-08-17T20:05:20.962Z,23.40
2022-08-17T20:07:55.297Z,23.40
2022-08-17T20:10:38.767Z,23.50
2022-08-17T20:13:12.256Z,23.60
2022-08-17T20:15:44.048Z,23.60
2022-08-17T20:18:20.485Z,23.70
2022-08-17T20:20:56.927Z,23.70
2022-08-17T20:23:45.933Z,23.70
2022-08-17T20:26:21.669Z,23.70
2022-08-17T20:29:07.546Z,23.50
2022-08-17T20:31:49.490Z,23.50
2022-08-17T20:34:37.198Z,23.50
2022-08-17T20:37:09.308Z,23.60
2022-08-17T20:39:40.955Z,23.60
2022-08-17T20:42:30.216Z,23.60
2022-08-17T20:45:05.346Z,23.70
2022-08-17T20:47:50.641Z,23.70
2022-08-17T20:50:33.940Z,23.80
2022-08-17T20:53:04.161Z,23.80
2022-08-17T20:55:54.762Z,23.80
2022-08-17T20:58:53.865Z,23.60
2022-08-17T21:01:39.996Z,23.30
2022-08-17T21:04:43.843Z,23.20
2022-08-17T21:07:29.060Z,23.30
2022-08-17T21:10:12.597Z,23.40
2022-08-17T21:12:44.769Z,23.50
2022-08-17T21:15:28.588Z,23.70
2022-08-17T21:18:07.137Z,23.70
2022-08-17T21:20:42.916Z,23.80
2022-08-17T21:24:07.515Z,23.80
2022-08-17T21:26:50.735Z,23.80
2022-08-17T21:29:31.467Z,23.90
2022-08-17T21:32:24.680Z,23.80
2022-08-17T21:35:25.448Z,23.80
2022-08-17T21:37:59.941Z,23.80
2022-08-17T21:40:31.005Z,23.80
2022-08-17T21:43:08.344Z,23.80
2022-08-17T21:45:39.326Z,23.80
2022-08-17T21:48:12.789Z,23.80
2022-08-17T21:50:45.502Z,23.70
2022-08-17T21:53:23.813Z,23.70
2022-08-17T21:55:54.062Z,23.70
2022-08-17T21:58:30.499Z,23.60
2022-08-17T22:01:22.024Z,23.70
2022-08-17T22:04:11.706Z,23.60
2022-08-17T22:06:43.149Z,23.60
2022-08-17T22:09:29.479Z,23.60
2022-08-17T22:12:03.332Z,23.60
2022-08-17T22:14:52.629Z,23.50
2022-08-17T22:17:24.882Z,23.50
2022-08-17T22:19:55.817Z,23.50
2022-08-17T22:22:34.737Z,23.50
2022-08-17T22:25:07.014Z,23.40
2022-08-17T22:27:51.391Z,23.40
2022-08-17T22:30:40.215Z,23.40
2022-08-17T22:33:32.741Z,23.30
2022-08-17T22:36:13.852Z,23.30
2022-08-17T22:38:43.867Z,23.30
2022-08-17T22:41:32.116Z,23.30
2022-08-17T22:44:07.814Z,23.30
2022-08-17T22:46:41.090Z,23.30
2022-08-17T22:49:09.435Z,23.20
2022-08-17T22:51:40.141Z,23.10
2022-08-17T22:54:35.083Z,23.10
2022-08-17T22:57:24.183Z,23.20
2022-08-17T22:59:55.591Z,23.10
2022-08-17T23:02:29.329Z,23.10
2022-08-17T23:05:21.686Z,23.10
2022-08-17T23:07:54.822Z,23.00
2022-08-17T23:10:25.483Z,23.00
2022-08-17T23:12:59.716Z,23.00
2022-08-17T23:15:33.275Z,23.00
2022-08-17T23:18:05.276Z,22.90
2022-08-17T23:20:39.303Z,22.90
2022-08-17T23:23:11.164Z,22.80
2022-08-17T23:25:44.470Z,22.80
2022-08-17T23:28:13.245Z,22.80
2022-08-17T23:30:44.489Z,22.80
2022-08-17T23:33:21.336Z,22.80
2022-08-17T23:35:49.964Z,22.70
2022-08-17T23:38:22.225Z,22.80
2022-08-17T23:40:52.297Z,22.70
2022-08-17T23:43:25.718Z,22.70
2022-08-17T23:45:59.667Z,22.70
2022-08-17T23:48:36.946Z,22.70
2022-08-17T23:51:12.751Z,22.70
2022-08-17T23:53:44.148Z,22.70
2022-08-17T23:56:14.027Z,22.70
2022-08-17T23:58:43.988Z,22.60
